Time;durP1;ratioP1;P1;durP2;ratioP2;P2;SDS_P1;SDS_P2;PMS_P1;PMS_P2;Temp;Humidity;BMP_temperature;BMP_pressure;BME280_temperature;BME280_humidity;BME280_pressure;Samples;Min_cycle;Max_cycle;Signal;HPM_P1;HPM_P2
2024/01/04 00:01:53;;;;;;;4.55;1.67;;;;;;;;;;5030065;28;20076;-63
2024/01/04 00:04:20;;;;;;;2.55;1.23;;;;;;;;;;5027379;28;20137;-62
2024/01/04 00:06:45;;;;;;;6.18;1.48;;;;;;;;;;5035894;28;20111;-63
2024/01/04 00:09:12;;;;;;;3.47;1.25;;;;;;;;;;5022867;28;20045;-63
2024/01/04 00:11:41;;;;;;;7.15;1.35;;;;;;;;;;5037807;28;20057;-63
2024/01/04 00:14:08;;;;;;;7.80;1.25;;;;;;;;;;5039148;28;20301;-62
2024/01/04 00:16:36;;;;;;;9.50;1.57;;;;;;;;;;5022079;28;20115;-64
2024/01/04 00:19:03;;;;;;;3.15;1.10;;;;;;;;;;5014339;28;20077;-63
2024/01/04 00:21:29;;;;;;;4.95;1.02;;;;;;;;;;5023473;28;20053;-64
2024/01/04 00:23:57;;;;;;;3.92;1.50;;;;;;;;;;5021754;28;20112;-62
2024/01/04 00:26:25;;;;;;;5.22;1.38;;;;;;;;;;5013212;28;20053;-65
2024/01/04 00:28:53;;;;;;;3.38;1.15;;;;;;;;;;5035482;28;20053;-65
2024/01/04 00:31:20;;;;;;;6.82;1.20;;;;;;;;;;5042787;28;20077;-65
2024/01/04 00:33:46;;;;;;;6.75;1.67;;;;;;;;;;5027722;28;20411;-65
2024/01/04 00:36:14;;;;;;;3.90;1.27;;;;;;;;;;5019073;28;20055;-64
2024/01/04 00:38:41;;;;;;;3.80;1.08;;;;;;;;;;5033452;28;20057;-64
2024/01/04 00:41:07;;;;;;;3.65;1.10;;;;;;;;;;5022209;28;20057;-65
2024/01/04 00:43:34;;;;;;;1.92;0.90;;;;;;;;;;5037786;28;20123;-63
2024/01/04 00:46:02;;;;;;;6.13;1.00;;;;;;;;;;5021142;28;20653;-63
2024/01/04 00:48:29;;;;;;;6.53;1.92;;;;;;;;;;5021248;28;20523;-63
2024/01/04 00:50:55;;;;;;;2.88;1.52;;;;;;;;;;5012763;28;20131;-62
2024/01/04 00:53:22;;;;;;;3.80;1.35;;;;;;;;;;5029947;28;20053;-62
2024/01/04 00:55:49;;;;;;;3.92;1.40;;;;;;;;;;5015459;28;20177;-62
2024/01/04 00:58:15;;;;;;;10.32;1.15;;;;;;;;;;5010911;28;20092;-63
2024/01/04 01:00:43;;;;;;;4.50;0.93;;;;;;;;;;5024424;28;20062;-62
2024/01/04 01:03:11;;;;;;;2.67;1.27;;;;;;;;;;5028807;28;20072;-63
2024/01/04 01:05:38;;;;;;;2.08;0.90;;;;;;;;;;5024778;28;20125;-63
2024/01/04 01:08:05;;;;;;;1.73;0.82;;;;;;;;;;5015810;28;20117;-63
2024/01/04 01:10:34;;;;;;;3.63;1.07;;;;;;;;;;5022804;28;20480;-63
2024/01/04 01:13:00;;;;;;;2.38;0.82;;;;;;;;;;5023779;28;20064;-63
2024/01/04 01:15:27;;;;;;;7.03;1.08;;;;;;;;;;5027103;28;20135;-63
2024/01/04 01:17:54;;;;;;;3.60;1.13;;;;;;;;;;5024544;28;20499;-64
2024/01/04 01:20:22;;;;;;;6.43;1.33;;;;;;;;;;5014444;28;20047;-63
2024/01/04 01:22:48;;;;;;;3.97;1.00;;;;;;;;;;5026670;28;20045;-64
2024/01/04 01:25:15;;;;;;;3.28;0.82;;;;;;;;;;5017111;28;20053;-63
2024/01/04 01:27:42;;;;;;;4.70;0.88;;;;;;;;;;5018217;28;20049;-63
2024/01/04 01:30:10;;;;;;;3.33;0.90;;;;;;;;;;5014391;28;20143;-63
2024/01/04 01:32:36;;;;;;;4.60;0.98;;;;;;;;;;5018348;28;20052;-64
2024/01/04 01:35:04;;;;;;;5.15;0.73;;;;;;;;;;5017461;28;20124;-63
2024/01/04 01:37:31;;;;;;;11.50;2.30;;;;;;;;;;5024674;28;20053;-63
2024/01/04 01:39:58;;;;;;;7.63;1.83;;;;;;;;;;5021362;28;20132;-64
2024/01/04 01:42:25;;;;;;;4.45;1.70;;;;;;;;;;5039367;28;20052;-63
2024/01/04 01:44:52;;;;;;;4.03;1.25;;;;;;;;;;5032761;28;20061;-64
2024/01/04 01:47:19;;;;;;;3.70;1.13;;;;;;;;;;5020874;28;20045;-63
2024/01/04 01:49:45;;;;;;;4.88;0.93;;;;;;;;;;5015821;28;20054;-63
2024/01/04 01:52:13;;;;;;;3.90;1.17;;;;;;;;;;5017669;28;20103;-63
2024/01/04 01:54:41;;;;;;;3.90;1.15;;;;;;;;;;5027278;28;20049;-63
2024/01/04 01:57:08;;;;;;;5.00;1.30;;;;;;;;;;5018414;28;20045;-63
2024/01/04 01:59:36;;;;;;;3.58;1.30;;;;;;;;;;5012874;28;20057;-63
2024/01/04 02:02:03;;;;;;;5.65;1.23;;;;;;;;;;5016101;28;20056;-62
2024/01/04 02:04:29;;;;;;;3.78;1.50;;;;;;;;;;5013817;28;20049;-62
2024/01/04 02:06:56;;;;;;;5.90;1.75;;;;;;;;;;5015680;28;20148;-63
2024/01/04 02:09:23;;;;;;;8.68;1.90;;;;;;;;;;5010593;28;20049;-64
2024/01/04 02:11:51;;;;;;;5.63;1.27;;;;;;;;;;5013565;28;20049;-64
2024/01/04 02:14:17;;;;;;;6.22;1.10;;;;;;;;;;5016445;28;20293;-64
2024/01/04 02:16:44;;;;;;;7.07;1.65;;;;;;;;;;5049127;28;20060;-65
2024/01/04 02:19:12;;;;;;;9.75;1.50;;;;;;;;;;5016481;28;20060;-65
2024/01/04 02:21:40;;;;;;;3.35;1.48;;;;;;;;;;5014060;28;20061;-64
2024/01/04 02:24:09;;;;;;;4.50;1.70;;;;;;;;;;5013004;28;20064;-65
2024/01/04 02:26:35;;;;;;;5.22;1.75;;;;;;;;;;5045459;28;20493;-64
2024/01/04 02:29:02;;;;;;;5.28;1.70;;;;;;;;;;5002719;28;20049;-64
2024/01/04 02:31:28;;;;;;;6.55;1.63;;;;;;;;;;5009091;28;20058;-65
2024/01/04 02:33:55;;;;;;;5.22;1.73;;;;;;;;;;5021890;28;20132;-64
2024/01/04 02:36:22;;;;;;;4.32;1.77;;;;;;;;;;5003522;28;20053;-64
2024/01/04 02:38:48;;;;;;;6.05;2.05;;;;;;;;;;5022744;28;20061;-63
2024/01/04 02:41:17;;;;;;;6.70;1.90;;;;;;;;;;5016851;28;20072;-64
2024/01/04 02:43:43;;;;;;;10.73;2.05;;;;;;;;;;5014306;28;20140;-65
2024/01/04 02:46:10;;;;;;;7.38;1.65;;;;;;;;;;5013212;28;20500;-65
2024/01/04 02:48:36;;;;;;;7.60;1.52;;;;;;;;;;5010779;28;20129;-65
2024/01/04 02:51:03;;;;;;;10.63;1.83;;;;;;;;;;5005082;28;20090;-65
2024/01/04 02:53:30;;;;;;;5.53;1.50;;;;;;;;;;5007645;28;20064;-64
2024/01/04 02:55:57;;;;;;;7.53;1.48;;;;;;;;;;5004104;28;20084;-65
2024/01/04 02:58:25;;;;;;;8.38;1.38;;;;;;;;;;4998886;28;20046;-64
2024/01/04 03:00:51;;;;;;;6.55;1.63;;;;;;;;;;5002743;28;20052;-64
2024/01/04 03:03:18;;;;;;;2.80;1.38;;;;;;;;;;5024515;28;20475;-65
2024/01/04 03:05:44;;;;;;;3.78;1.40;;;;;;;;;;5041729;28;20151;-65
2024/01/04 03:08:11;;;;;;;5.35;1.42;;;;;;;;;;5023914;28;20057;-65
2024/01/04 03:10:38;;;;;;;7.53;1.70;;;;;;;;;;5026028;28;20134;-65
2024/01/04 03:13:05;;;;;;;6.78;1.80;;;;;;;;;;5012686;28;20147;-64
2024/01/04 03:15:33;;;;;;;8.13;1.60;;;;;;;;;;5012123;28;20143;-65
2024/01/04 03:17:59;;;;;;;5.18;1.33;;;;;;;;;;5026663;28;20061;-65
2024/01/04 03:20:26;;;;;;;4.72;1.25;;;;;;;;;;5021976;28;20051;-64
2024/01/04 03:22:52;;;;;;;5.35;1.35;;;;;;;;;;5015281;28;20053;-66
2024/01/04 03:25:19;;;;;;;7.57;1.50;;;;;;;;;;5021014;28;20171;-64
2024/01/04 03:27:46;;;;;;;6.28;1.50;;;;;;;;;;5020735;28;20057;-65
2024/01/04 03:30:13;;;;;;;2.47;1.20;;;;;;;;;;5026308;28;20052;-64
2024/01/04 03:32:41;;;;;;;7.93;1.38;;;;;;;;;;5017252;28;20171;-65
2024/01/04 03:35:09;;;;;;;5.10;1.50;;;;;;;;;;5025254;28;20068;-64
2024/01/04 03:37:35;;;;;;;7.30;1.37;;;;;;;;;;5020904;28;20057;-64
2024/01/04 03:40:02;;;;;;;6.25;1.30;;;;;;;;;;5018539;28;20059;-64
2024/01/04 03:42:28;;;;;;;4.68;1.40;;;;;;;;;;5011388;28;20140;-65
2024/01/04 03:44:55;;;;;;;6.80;1.48;;;;;;;;;;5025698;28;20088;-66
2024/01/04 03:47:22;;;;;;;4.10;1.52;;;;;;;;;;5015540;28;20129;-66
2024/01/04 03:49:50;;;;;;;7.35;1.63;;;;;;;;;;5024474;28;20045;-64
2024/01/04 03:52:17;;;;;;;7.85;1.65;;;;;;;;;;5021406;28;20140;-64
2024/01/04 03:54:43;;;;;;;3.85;1.40;;;;;;;;;;5026585;28;20211;-65
2024/01/04 03:57:10;;;;;;;3.55;1.35;;;;;;;;;;5026143;28;20057;-64
2024/01/04 03:59:37;;;;;;;5.10;1.38;;;;;;;;;;5020212;28;20052;-64
2024/01/04 04:02:04;;;;;;;4.03;1.42;;;;;;;;;;5013777;28;20057;-65
2024/01/04 04:04:31;;;;;;;6.80;1.30;;;;;;;;;;5018584;28;20048;-65
2024/01/04 04:06:59;;;;;;;2.45;1.17;;;;;;;;;;5019223;28;20389;-65
2024/01/04 04:09:25;;;;;;;1.13;0.90;;;;;;;;;;5018474;28;20073;-67
2024/01/04 04:11:52;;;;;;;5.50;1.10;;;;;;;;;;5023234;28;20160;-65
2024/01/04 04:14:19;;;;;;;4.68;1.23;;;;;;;;;;5023534;28;20140;-65
2024/01/04 04:16:45;;;;;;;2.45;1.00;;;;;;;;;;5027375;28;20107;-65
2024/01/04 04:19:13;;;;;;;6.13;0.93;;;;;;;;;;5025008;28;20068;-64
2024/01/04 04:21:39;;;;;;;3.28;1.00;;;;;;;;;;5010004;28;20124;-64
2024/01/04 04:24:08;;;;;;;3.67;1.02;;;;;;;;;;5011996;28;20046;-65
2024/01/04 04:26:34;;;;;;;;;;;;;;;;;;5027787;28;20121;-64
2024/01/04 04:29:01;;;;;;;2.75;1.08;;;;;;;;;;5018591;28;19975;-64
2024/01/04 04:31:28;;;;;;;5.22;1.00;;;;;;;;;;4996618;28;20457;-62
2024/01/04 04:33:54;;;;;;;2.85;1.08;;;;;;;;;;5027385;28;20052;-63
2024/01/04 04:36:21;;;;;;;4.90;1.45;;;;;;;;;;5026342;28;20057;-63
2024/01/04 04:38:48;;;;;;;3.75;1.15;;;;;;;;;;5022706;28;20085;-62
2024/01/04 04:41:17;;;;;;;3.17;1.02;;;;;;;;;;5017157;28;20057;-63
2024/01/04 04:43:43;;;;;;;;;;;;;;;;;;5017766;28;20056;-63
2024/01/04 04:46:11;;;;;;;3.13;1.08;;;;;;;;;;5023275;28;19976;-62
2024/01/04 04:48:38;;;;;;;5.97;1.17;;;;;;;;;;5025120;28;20067;-64
2024/01/04 04:51:05;;;;;;;2.92;1.05;;;;;;;;;;5025316;28;20820;-63
2024/01/04 04:53:32;;;;;;;3.28;1.08;;;;;;;;;;5022140;28;20045;-63
2024/01/04 04:55:58;;;;;;;3.30;1.00;;;;;;;;;;5016805;28;20053;-63
2024/01/04 04:58:26;;;;;;;3.08;1.20;;;;;;;;;;5021065;28;20049;-62
2024/01/04 05:00:53;;;;;;;3.40;1.30;;;;;;;;;;5015020;28;20045;-63
2024/01/04 05:03:20;;;;;;;3.58;1.08;;;;;;;;;;5013742;28;20063;-65
2024/01/04 05:05:47;;;;;;;2.63;0.90;;;;;;;;;;5014533;28;20049;-65
2024/01/04 05:08:13;;;;;;;3.15;0.90;;;;;;;;;;5023951;28;20061;-66
2024/01/04 05:10:40;;;;;;;4.72;1.00;;;;;;;;;;5027073;28;20064;-65
2024/01/04 05:13:07;;;;;;;2.17;1.00;;;;;;;;;;5020384;28;20069;-65
2024/01/04 05:15:35;;;;;;;2.42;1.00;;;;;;;;;;5027735;28;20052;-67
2024/01/04 05:18:01;;;;;;;1.58;1.02;;;;;;;;;;5018538;28;20041;-66
2024/01/04 05:20:28;;;;;;;4.50;1.35;;;;;;;;;;5031857;28;20164;-62
2024/01/04 05:22:55;;;;;;;3.80;1.13;;;;;;;;;;5012105;28;20049;-63
2024/01/04 05:25:22;;;;;;;2.05;0.93;;;;;;;;;;5034981;28;20125;-63
2024/01/04 05:27:48;;;;;;;3.38;1.10;;;;;;;;;;5032130;28;20053;-63
2024/01/04 05:30:15;;;;;;;2.65;1.05;;;;;;;;;;5026024;28;20052;-63
2024/01/04 05:32:43;;;;;;;3.75;1.40;;;;;;;;;;5025690;28;20123;-63
2024/01/04 05:35:11;;;;;;;2.08;1.23;;;;;;;;;;5015226;28;20049;-63
2024/01/04 05:37:38;;;;;;;7.55;1.23;;;;;;;;;;5010836;28;20068;-62
2024/01/04 05:40:06;;;;;;;3.83;1.30;;;;;;;;;;5023037;28;20077;-63
2024/01/04 05:42:33;;;;;;;2.92;0.98;;;;;;;;;;5028658;28;20156;-62
2024/01/04 05:45:00;;;;;;;2.35;1.15;;;;;;;;;;5009612;28;20180;-63
2024/01/04 05:47:26;;;;;;;2.67;1.27;;;;;;;;;;4997891;28;20050;-63
2024/01/04 05:49:55;;;;;;;4.22;1.45;;;;;;;;;;5007726;28;20112;-63
2024/01/04 05:52:22;;;;;;;6.25;1.67;;;;;;;;;;5001686;28;20148;-63
2024/01/04 05:54:49;;;;;;;4.97;1.42;;;;;;;;;;5012004;28;20148;-63
2024/01/04 05:57:17;;;;;;;2.55;1.27;;;;;;;;;;5015761;28;20057;-65
2024/01/04 05:59:44;;;;;;;3.42;1.23;;;;;;;;;;5009504;28;21135;-63
2024/01/04 06:02:10;;;;;;;3.75;1.23;;;;;;;;;;5018851;28;20061;-63
2024/01/04 06:04:37;;;;;;;8.55;1.75;;;;;;;;;;5016307;28;20077;-63
2024/01/04 06:07:05;;;;;;;3.53;1.25;;;;;;;;;;5028521;28;20088;-63
2024/01/04 06:09:32;;;;;;;5.47;1.40;;;;;;;;;;5014188;28;20140;-63
2024/01/04 06:11:58;;;;;;;3.05;1.13;;;;;;;;;;5003854;28;20158;-64
2024/01/04 06:14:25;;;;;;;5.50;1.33;;;;;;;;;;5031789;28;20200;-63
2024/01/04 06:16:51;;;;;;;10.02;2.88;;;;;;;;;;5023262;28;20071;-65
2024/01/04 06:19:18;;;;;;;4.85;1.73;;;;;;;;;;5017620;28;20106;-63
2024/01/04 06:21:45;;;;;;;3.35;0.90;;;;;;;;;;5017131;28;20053;-62
2024/01/04 06:24:13;;;;;;;2.22;1.08;;;;;;;;;;5002126;28;20053;-63
2024/01/04 06:26:39;;;;;;;5.10;0.98;;;;;;;;;;4986388;28;20564;-67
2024/01/04 06:29:07;;;;;;;1.00;0.60;;;;;;;;;;4997790;28;20087;-66
2024/01/04 06:31:34;;;;;;;1.15;0.80;;;;;;;;;;4986845;28;20057;-65
2024/01/04 06:34:00;;;;;;;3.58;0.80;;;;;;;;;;5020469;28;20052;-66
2024/01/04 06:36:27;;;;;;;2.75;1.00;;;;;;;;;;5014214;28;20125;-65
2024/01/04 06:38:53;;;;;;;1.63;0.55;;;;;;;;;;5035942;28;20055;-66
2024/01/04 06:41:23;;;;;;;2.03;0.70;;;;;;;;;;5011205;28;20143;-67
2024/01/04 06:43:51;;;;;;;3.13;0.90;;;;;;;;;;4994172;28;20085;-66
2024/01/04 06:46:17;;;;;;;3.55;0.60;;;;;;;;;;5016063;28;20275;-64
2024/01/04 06:48:44;;;;;;;2.50;0.80;;;;;;;;;;5008125;28;20053;-65
2024/01/04 06:51:11;;;;;;;3.33;0.80;;;;;;;;;;4997137;28;20053;-65
2024/01/04 06:53:37;;;;;;;1.35;0.60;;;;;;;;;;5036897;28;20155;-67
2024/01/04 06:56:05;;;;;;;10.43;0.90;;;;;;;;;;5014733;28;20049;-66
2024/01/04 06:58:33;;;;;;;2.15;0.77;;;;;;;;;;5023405;28;20049;-65
2024/01/04 07:01:00;;;;;;;1.45;0.50;;;;;;;;;;5020983;28;20065;-65
2024/01/04 07:03:27;;;;;;;1.65;0.68;;;;;;;;;;5009273;28;20072;-66
2024/01/04 07:05:53;;;;;;;2.15;0.82;;;;;;;;;;5021849;28;20068;-65
2024/01/04 07:08:20;;;;;;;2.67;0.90;;;;;;;;;;5016108;28;20062;-65
2024/01/04 07:10:46;;;;;;;3.92;1.10;;;;;;;;;;5020682;28;20049;-65
2024/01/04 07:13:13;;;;;;;4.00;1.27;;;;;;;;;;5018613;28;20109;-62
2024/01/04 07:15:41;;;;;;;3.15;1.50;;;;;;;;;;5010145;28;20145;-62
2024/01/04 07:18:08;;;;;;;2.95;1.27;;;;;;;;;;5020166;28;20041;-62
2024/01/04 07:20:34;;;;;;;1.40;0.95;;;;;;;;;;5017452;28;20140;-63
2024/01/04 07:23:01;;;;;;;3.00;0.80;;;;;;;;;;5018717;28;20121;-62
2024/01/04 07:25:27;;;;;;;2.70;0.65;;;;;;;;;;5030549;28;20411;-62
2024/01/04 07:27:54;;;;;;;1.63;0.73;;;;;;;;;;5025845;28;20081;-63
2024/01/04 07:30:21;;;;;;;5.10;0.93;;;;;;;;;;5027160;28;20064;-62
2024/01/04 07:32:49;;;;;;;1.50;0.70;;;;;;;;;;5020423;28;20164;-63
2024/01/04 07:35:19;;;;;;;2.75;1.00;;;;;;;;;;5030592;28;20037;-64
2024/01/04 07:37:45;;;;;;;10.57;2.28;;;;;;;;;;5032452;28;20069;-64
2024/01/04 07:40:12;;;;;;;8.82;2.67;;;;;;;;;;5034585;28;20052;-63
2024/01/04 07:42:39;;;;;;;4.95;1.40;;;;;;;;;;5015761;28;20045;-64
2024/01/04 07:45:06;;;;;;;3.90;1.30;;;;;;;;;;5025137;28;20052;-65
2024/01/04 07:47:33;;;;;;;3.10;0.90;;;;;;;;;;5028601;28;20197;-64
2024/01/04 07:50:01;;;;;;;3.63;1.60;;;;;;;;;;5030086;28;20068;-63
2024/01/04 07:52:27;;;;;;;3.00;1.20;;;;;;;;;;5021589;28;20069;-64
2024/01/04 07:54:54;;;;;;;4.75;1.48;;;;;;;;;;5023919;28;20064;-63
2024/01/04 07:57:21;;;;;;;3.95;1.50;;;;;;;;;;5020334;28;20064;-63
2024/01/04 07:59:47;;;;;;;3.28;1.17;;;;;;;;;;5028844;28;20092;-65
2024/01/04 08:02:15;;;;;;;4.72;1.70;;;;;;;;;;5029678;28;20045;-64
2024/01/04 08:04:41;;;;;;;3.38;1.70;;;;;;;;;;5037693;28;20065;-63
2024/01/04 08:07:09;;;;;;;2.92;1.33;;;;;;;;;;5037261;28;20110;-63
2024/01/04 08:09:37;;;;;;;5.72;1.40;;;;;;;;;;5027819;28;20073;-63
2024/01/04 08:12:04;;;;;;;3.40;1.80;;;;;;;;;;5016652;28;20215;-63
2024/01/04 08:14:33;;;;;;;3.45;1.40;;;;;;;;;;5020283;28;20049;-64
2024/01/04 08:16:59;;;;;;;4.97;1.48;;;;;;;;;;5023198;28;20064;-64
2024/01/04 08:19:26;;;;;;;2.78;1.30;;;;;;;;;;5018322;28;20068;-65
2024/01/04 08:21:53;;;;;;;3.35;1.52;;;;;;;;;;5017959;28;20176;-64
2024/01/04 08:24:21;;;;;;;3.53;1.48;;;;;;;;;;5022154;28;20065;-63
2024/01/04 08:26:48;;;;;;;3.38;1.30;;;;;;;;;;5023637;28;20160;-63
2024/01/04 08:29:15;;;;;;;3.38;1.15;;;;;;;;;;5022766;28;20053;-63
2024/01/04 08:31:41;;;;;;;4.53;1.38;;;;;;;;;;5019296;28;20737;-63
2024/01/04 08:34:08;;;;;;;6.75;2.10;;;;;;;;;;5027969;28;20126;-63
2024/01/04 08:36:35;;;;;;;4.80;2.38;;;;;;;;;;5022890;28;20127;-64
2024/01/04 08:39:03;;;;;;;6.55;2.53;;;;;;;;;;5026954;28;20083;-63
2024/01/04 08:41:33;;;;;;;10.97;4.30;;;;;;;;;;5003833;28;20057;-63
2024/01/04 08:44:00;;;;;;;16.90;4.93;;;;;;;;;;4998719;28;20375;-64
2024/01/04 08:46:26;;;;;;;4.93;1.92;;;;;;;;;;5028781;28;20053;-64
2024/01/04 08:48:53;;;;;;;6.15;1.73;;;;;;;;;;5007869;28;20050;-64
2024/01/04 08:51:20;;;;;;;5.47;1.75;;;;;;;;;;5000445;28;20061;-64
2024/01/04 08:53:49;;;;;;;5.30;1.48;;;;;;;;;;5029373;28;20045;-63
2024/01/04 08:56:15;;;;;;;3.22;1.50;;;;;;;;;;5022549;28;20065;-63
2024/01/04 08:58:44;;;;;;;4.47;1.90;;;;;;;;;;5055948;28;20069;-63
2024/01/04 09:01:12;;;;;;;;;;;;;;;;;;5018780;28;20056;-62
2024/01/04 09:03:38;;;;;;;13.27;5.53;;;;;;;;;;5032575;28;19954;-62
2024/01/04 09:06:06;;;;;;;8.63;4.25;;;;;;;;;;5020295;28;20172;-63
2024/01/04 09:08:35;;;;;;;5.20;2.23;;;;;;;;;;5023261;28;20144;-63
2024/01/04 09:11:01;;;;;;;;;;;;;;;;;;5018341;28;20300;-64
2024/01/04 09:13:29;;;;;;;4.60;1.70;;;;;;;;;;5049253;28;20050;-63
2024/01/04 09:15:58;;;;;;;4.25;1.63;;;;;;;;;;5025593;28;20057;-63
2024/01/04 09:18:24;;;;;;;3.72;1.83;;;;;;;;;;5031110;28;20060;-63
2024/01/04 09:20:51;;;;;;;4.88;1.67;;;;;;;;;;5026822;28;20056;-64
2024/01/04 09:23:18;;;;;;;6.53;1.73;;;;;;;;;;5025117;28;20299;-64
2024/01/04 09:25:47;;;;;;;4.65;1.73;;;;;;;;;;5042966;28;20136;-63
2024/01/04 09:28:15;;;;;;;5.22;1.77;;;;;;;;;;5032425;28;20136;-63
2024/01/04 09:30:42;;;;;;;4.55;1.83;;;;;;;;;;5048536;28;20167;-63
2024/01/04 09:33:11;;;;;;;4.60;1.80;;;;;;;;;;5017955;28;20053;-63
2024/01/04 09:35:38;;;;;;;8.10;2.10;;;;;;;;;;5018852;28;20214;-64
2024/01/04 09:38:05;;;;;;;6.80;2.10;;;;;;;;;;5025529;28;20057;-64
2024/01/04 09:40:31;;;;;;;7.72;1.75;;;;;;;;;;5025278;28;20048;-62
2024/01/04 09:42:58;;;;;;;4.85;2.10;;;;;;;;;;5016693;28;20097;-62
2024/01/04 09:45:27;;;;;;;4.72;1.75;;;;;;;;;;5001559;28;20048;-62
2024/01/04 09:47:56;;;;;;;4.30;1.73;;;;;;;;;;5030266;28;20114;-63
2024/01/04 09:50:24;;;;;;;4.55;1.85;;;;;;;;;;5034203;28;20072;-63
2024/01/04 09:52:54;;;;;;;9.38;2.00;;;;;;;;;;5017053;28;20061;-62
2024/01/04 09:55:23;;;;;;;6.78;2.80;;;;;;;;;;5017476;28;20081;-64
2024/01/04 09:57:50;;;;;;;;;;;;;;;;;;5021794;28;20132;-63
2024/01/04 10:00:17;;;;;;;4.28;1.90;;;;;;;;;;5026273;28;20058;-63
2024/01/04 10:02:44;;;;;;;5.30;2.13;;;;;;;;;;5018161;28;20143;-62
2024/01/04 10:05:18;;;;;;;8.27;2.03;;;;;;;;;;5023918;28;20045;-63
2024/01/04 10:08:05;;;;;;;3.30;1.35;;;;;;;;;;5018845;28;20053;-63
2024/01/04 10:10:36;;;;;;;2.60;1.02;;;;;;;;;;5027843;28;20144;-63
2024/01/04 10:13:05;;;;;;;1.50;0.90;;;;;;;;;;5018031;28;20049;-63
2024/01/04 10:15:32;;;;;;;4.93;0.77;;;;;;;;;;5029813;28;20059;-62
2024/01/04 10:18:00;;;;;;;3.15;0.80;;;;;;;;;;5021743;28;20053;-62
2024/01/04 10:20:27;;;;;;;3.58;1.13;;;;;;;;;;5032514;28;20114;-64
2024/01/04 10:22:58;;;;;;;7.13;2.88;;;;;;;;;;5043564;28;20080;-63
2024/01/04 10:25:25;;;;;;;15.63;5.57;;;;;;;;;;5029217;28;20134;-62
2024/01/04 10:27:55;;;;;;;8.27;2.92;;;;;;;;;;5016663;28;20157;-64
2024/01/04 10:30:22;;;;;;;2.63;1.15;;;;;;;;;;5036736;28;20046;-63
2024/01/04 10:32:50;;;;;;;2.58;1.20;;;;;;;;;;5002365;28;20093;-63
2024/01/04 10:35:25;;;;;;;2.43;1.00;;;;;;;;;;5028422;28;20466;-64
2024/01/04 10:37:58;;;;;;;2.15;0.98;;;;;;;;;;5026237;28;20304;-63
2024/01/04 10:40:26;;;;;;;2.08;0.90;;;;;;;;;;5034186;28;20077;-63
2024/01/04 10:42:54;;;;;;;5.07;1.17;;;;;;;;;;5010181;28;20061;-63
2024/01/04 10:45:27;;;;;;;2.08;0.90;;;;;;;;;;5019332;28;20107;-63
2024/01/04 10:47:55;;;;;;;2.28;1.00;;;;;;;;;;5025297;28;20046;-63
2024/01/04 10:50:25;;;;;;;2.47;1.13;;;;;;;;;;5018279;28;20053;-64
2024/01/04 10:52:54;;;;;;;5.05;0.95;;;;;;;;;;5008932;28;20227;-64
2024/01/04 10:55:24;;;;;;;3.38;0.80;;;;;;;;;;5018368;28;20068;-63
2024/01/04 10:57:55;;;;;;;2.05;0.82;;;;;;;;;;5023295;28;20045;-64
2024/01/04 11:00:22;;;;;;;2.13;0.85;;;;;;;;;;5023606;28;20059;-63
2024/01/04 11:02:51;;;;;;;0.65;0.60;;;;;;;;;;5028022;28;20167;-64
2024/01/04 11:05:20;;;;;;;0.93;0.70;;;;;;;;;;5027059;28;20049;-62
2024/01/04 11:07:48;;;;;;;;;;;;;;;;;;5024950;28;20116;-63
2024/01/04 11:10:16;;;;;;;1.58;0.68;;;;;;;;;;5027194;28;19925;-63
2024/01/04 11:12:47;;;;;;;7.95;1.40;;;;;;;;;;5026598;28;20064;-64
2024/01/04 11:15:16;;;;;;;1.52;0.90;;;;;;;;;;5035611;28;20136;-65
2024/01/04 11:17:56;;;;;;;3.85;1.20;;;;;;;;;;5025934;28;20128;-63
2024/01/04 11:20:32;;;;;;;6.18;0.90;;;;;;;;;;5017521;28;20084;-63
2024/01/04 11:23:22;;;;;;;2.70;0.90;;;;;;;;;;5005364;28;20053;-63
2024/01/04 11:26:14;;;;;;;3.95;1.00;;;;;;;;;;5023180;28;20212;-63
2024/01/04 11:28:43;;;;;;;2.60;1.17;;;;;;;;;;5017134;28;20053;-63
2024/01/04 11:31:10;;;;;;;;;;;;;;;;;;5016725;28;20049;-63
2024/01/04 11:33:39;;;;;;;4.35;1.02;;;;;;;;;;5044637;28;19925;-63
2024/01/04 11:36:07;;;;;;;4.03;1.65;;;;;;;;;;5021038;28;20056;-63
2024/01/04 11:38:36;;;;;;;1.80;0.88;;;;;;;;;;5018940;28;20134;-63
2024/01/04 11:41:03;;;;;;;2.55;1.15;;;;;;;;;;5029645;28;20361;-65
2024/01/04 11:43:36;;;;;;;16.88;6.38;;;;;;;;;;5014598;28;20076;-64
2024/01/04 11:46:21;;;;;;;12.88;3.53;;;;;;;;;;5024699;28;20126;-63
2024/01/04 11:48:53;;;;;;;3.85;1.50;;;;;;;;;;5024097;28;20053;-62
2024/01/04 11:51:31;;;;;;;5.05;1.20;;;;;;;;;;5022038;28;20155;-62
2024/01/04 11:53:58;;;;;;;1.15;0.70;;;;;;;;;;5024370;28;20144;-63
2024/01/04 11:56:25;;;;;;;3.05;1.02;;;;;;;;;;5023702;28;20045;-63
2024/01/04 11:58:52;;;;;;;4.22;1.10;;;;;;;;;;5019524;28;20037;-63
2024/01/04 12:01:24;;;;;;;4.93;1.00;;;;;;;;;;5027722;28;20161;-62
2024/01/04 12:03:51;;;;;;;4.00;1.52;;;;;;;;;;5028373;28;20077;-65
2024/01/04 12:06:21;;;;;;;10.55;2.85;;;;;;;;;;5030374;28;20126;-65
2024/01/04 12:08:49;;;;;;;10.70;3.83;;;;;;;;;;5019070;28;20088;-66
2024/01/04 12:11:19;;;;;;;3.22;1.65;;;;;;;;;;5013142;28;20065;-65
2024/01/04 12:13:48;;;;;;;8.18;0.85;;;;;;;;;;5024771;28;20060;-65
2024/01/04 12:16:15;;;;;;;2.40;1.00;;;;;;;;;;5020973;28;20472;-65
2024/01/04 12:18:45;;;;;;;2.22;0.93;;;;;;;;;;5023060;28;20135;-67
2024/01/04 12:21:12;;;;;;;2.00;0.85;;;;;;;;;;5005610;28;20038;-66
2024/01/04 12:23:40;;;;;;;1.05;0.70;;;;;;;;;;5033326;28;20049;-65
2024/01/04 12:26:07;;;;;;;2.42;1.00;;;;;;;;;;5019567;28;20064;-65
2024/01/04 12:28:34;;;;;;;2.08;0.75;;;;;;;;;;5026690;28;20077;-65
2024/01/04 12:31:01;;;;;;;1.88;0.60;;;;;;;;;;5014808;28;20053;-66
2024/01/04 12:33:30;;;;;;;2.33;0.90;;;;;;;;;;5034762;28;20136;-66
2024/01/04 12:35:59;;;;;;;2.38;0.90;;;;;;;;;;5023457;28;20084;-65
2024/01/04 12:38:26;;;;;;;1.25;0.60;;;;;;;;;;5026948;28;20110;-65
2024/01/04 12:40:53;;;;;;;3.03;0.60;;;;;;;;;;5029960;28;20455;-64
2024/01/04 12:43:25;;;;;;;4.68;0.90;;;;;;;;;;5039770;28;20056;-65
2024/01/04 12:46:02;;;;;;;3.30;0.77;;;;;;;;;;5035733;28;20107;-65
2024/01/04 12:48:29;;;;;;;2.40;0.73;;;;;;;;;;5031340;28;20059;-65
2024/01/04 12:50:56;;;;;;;4.50;0.75;;;;;;;;;;5039778;28;20049;-65
2024/01/04 12:53:24;;;;;;;1.17;0.50;;;;;;;;;;5030734;28;20053;-65
2024/01/04 12:55:51;;;;;;;1.77;0.88;;;;;;;;;;5017269;28;20049;-65
2024/01/04 12:58:17;;;;;;;4.45;1.02;;;;;;;;;;5019160;28;20072;-62
2024/01/04 13:00:44;;;;;;;1.95;1.05;;;;;;;;;;5006922;28;20131;-64
2024/01/04 13:03:11;;;;;;;2.40;0.88;;;;;;;;;;5016735;28;20064;-65
2024/01/04 13:05:37;;;;;;;1.25;0.90;;;;;;;;;;5006642;28;20042;-65
2024/01/04 13:08:04;;;;;;;4.57;1.38;;;;;;;;;;5024207;28;20061;-64
2024/01/04 13:10:35;;;;;;;3.63;1.30;;;;;;;;;;5030287;28;20045;-65
2024/01/04 13:13:04;;;;;;;4.10;1.23;;;;;;;;;;4985031;28;20049;-65
2024/01/04 13:15:31;;;;;;;4.40;1.30;;;;;;;;;;5011096;28;20076;-64
2024/01/04 13:17:57;;;;;;;2.13;0.88;;;;;;;;;;5012824;28;20133;-66
2024/01/04 13:20:24;;;;;;;1.30;0.85;;;;;;;;;;5005312;28;20131;-65
2024/01/04 13:22:51;;;;;;;1.55;0.90;;;;;;;;;;4995716;28;20137;-64
2024/01/04 13:25:18;;;;;;;6.28;1.02;;;;;;;;;;5000373;28;20080;-65
2024/01/04 13:27:46;;;;;;;4.57;0.90;;;;;;;;;;5005254;28;20050;-64
2024/01/04 13:30:15;;;;;;;2.35;1.23;;;;;;;;;;5004937;28;20133;-64
2024/01/04 13:32:42;;;;;;;4.22;1.10;;;;;;;;;;5007276;28;20123;-64
2024/01/04 13:35:10;;;;;;;4.03;1.08;;;;;;;;;;5024033;28;20267;-65
2024/01/04 13:37:39;;;;;;;3.75;1.30;;;;;;;;;;5031234;28;21264;-64
2024/01/04 13:40:09;;;;;;;2.33;0.70;;;;;;;;;;5035318;28;20053;-65
2024/01/04 13:42:36;;;;;;;3.17;0.60;;;;;;;;;;4987244;28;20064;-65
2024/01/04 13:45:08;;;;;;;1.30;0.60;;;;;;;;;;5019108;28;20210;-65
2024/01/04 13:47:35;;;;;;;3.88;0.52;;;;;;;;;;5006136;28;20072;-65
2024/01/04 13:50:03;;;;;;;1.77;0.55;;;;;;;;;;5017783;28;20053;-66
2024/01/04 13:52:30;;;;;;;0.30;0.30;;;;;;;;;;5004646;28;20384;-65
2024/01/04 13:54:56;;;;;;;1.15;0.52;;;;;;;;;;4995137;28;20158;-66
2024/01/04 13:57:23;;;;;;;1.33;0.52;;;;;;;;;;5001904;28;20046;-67
2024/01/04 13:59:50;;;;;;;0.82;0.43;;;;;;;;;;5003919;28;20050;-65
2024/01/04 14:02:18;;;;;;;3.30;0.85;;;;;;;;;;5019105;28;20072;-65
2024/01/04 14:04:45;;;;;;;0.55;0.40;;;;;;;;;;5029983;28;20057;-65
2024/01/04 14:07:14;;;;;;;1.30;0.45;;;;;;;;;;5040245;28;20076;-65
2024/01/04 14:09:43;;;;;;;1.08;0.50;;;;;;;;;;5023907;28;20052;-65
2024/01/04 14:12:12;;;;;;;;;;;;;;;;;;5014017;28;20060;-66
2024/01/04 14:14:38;;;;;;;8.25;3.47;;;;;;;;;;5029808;28;20860;-65
2024/01/04 14:17:06;;;;;;;3.60;1.52;;;;;;;;;;5023983;28;20053;-65
2024/01/04 14:19:34;;;;;;;3.93;1.57;;;;;;;;;;5014010;28;20084;-66
2024/01/04 14:22:01;;;;;;;1.38;0.80;;;;;;;;;;5022153;28;20056;-65
2024/01/04 14:24:28;;;;;;;1.02;0.40;;;;;;;;;;5029194;28;20045;-67
2024/01/04 14:26:55;;;;;;;0.47;0.30;;;;;;;;;;5021898;28;20129;-66
2024/01/04 14:29:22;;;;;;;2.58;0.50;;;;;;;;;;5002621;28;20510;-67
2024/01/04 14:31:50;;;;;;;0.90;0.43;;;;;;;;;;4985784;28;20125;-66
2024/01/04 14:34:17;;;;;;;1.75;0.88;;;;;;;;;;5022406;28;20057;-63
2024/01/04 14:36:46;;;;;;;1.02;0.40;;;;;;;;;;5021265;28;20054;-64
2024/01/04 14:39:21;;;;;;;1.55;0.57;;;;;;;;;;5045989;28;20053;-66
2024/01/04 14:41:47;;;;;;;2.92;1.27;;;;;;;;;;4999640;28;20048;-64
2024/01/04 14:44:14;;;;;;;4.88;1.23;;;;;;;;;;5039583;28;20161;-64
2024/01/04 14:46:41;;;;;;;5.05;2.30;;;;;;;;;;5019126;28;20085;-65
2024/01/04 14:49:11;;;;;;;21.10;8.57;;;;;;;;;;5024548;28;20126;-64